createdAt,value
2018-07-25T00:00:20.093Z,99.80
2018-07-25T00:02:48.261Z,99.70
2018-07-25T00:05:16.444Z,99.80
2018-07-25T00:07:44.754Z,99.80
2018-07-25T00:10:12.904Z,99.90
2018-07-25T00:12:41.087Z,99.90
2018-07-25T00:15:09.265Z,99.80
2018-07-25T00:17:37.415Z,99.90
2018-07-25T00:20:05.676Z,99.90
2018-07-25T00:22:33.896Z,99.90
2018-07-25T00:25:02.667Z,99.90
2018-07-25T00:27:30.959Z,99.90
2018-07-25T00:29:59.155Z,99.90
2018-07-25T00:32:27.288Z,99.90
2018-07-25T00:34:55.531Z,99.90
2018-07-25T00:37:24.975Z,99.90
2018-07-25T00:39:53.194Z,99.90
2018-07-25T00:42:21.418Z,99.90
2018-07-25T00:44:49.672Z,99.90
2018-07-25T00:47:17.855Z,99.90
2018-07-25T00:49:46.040Z,99.90
2018-07-25T00:52:14.254Z,99.90
2018-07-25T00:54:42.547Z,99.90
2018-07-25T00:57:10.756Z,99.90
2018-07-25T00:59:38.944Z,99.90
2018-07-25T01:02:07.112Z,99.90
2018-07-25T01:04:35.396Z,99.90
2018-07-25T01:07:03.636Z,99.90
2018-07-25T01:09:31.832Z,99.90
2018-07-25T01:12:00.022Z,99.90
2018-07-25T01:14:28.195Z,99.90
2018-07-25T01:16:56.371Z,99.90
2018-07-25T01:19:24.528Z,99.90
2018-07-25T01:21:52.704Z,99.90
2018-07-25T01:24:20.995Z,99.90
2018-07-25T01:26:49.184Z,99.90
2018-07-25T01:29:17.351Z,99.90
2018-07-25T01:31:45.548Z,99.90
2018-07-25T01:34:13.760Z,99.90
2018-07-25T01:36:41.902Z,99.90
2018-07-25T01:39:10.780Z,99.90
2018-07-25T01:41:39.075Z,99.90
2018-07-25T01:44:07.663Z,99.90
2018-07-25T01:46:35.779Z,99.90
2018-07-25T01:49:04.035Z,99.90
2018-07-25T01:51:32.267Z,99.90
2018-07-25T01:54:00.452Z,99.90
2018-07-25T01:56:28.634Z,99.90
2018-07-25T01:58:56.807Z,99.90
2018-07-25T02:01:24.961Z,99.90
2018-07-25T02:03:53.157Z,99.90
2018-07-25T02:06:23.379Z,99.90
2018-07-25T02:08:52.361Z,99.90
2018-07-25T02:11:20.664Z,99.90
2018-07-25T02:13:48.900Z,99.90
2018-07-25T02:16:17.196Z,99.90
2018-07-25T02:18:45.412Z,99.90
2018-07-25T02:21:13.572Z,99.90
2018-07-25T02:23:41.918Z,99.90
2018-07-25T02:26:10.095Z,99.90
2018-07-25T02:28:38.309Z,99.90
2018-07-25T02:31:06.708Z,99.90
2018-07-25T02:33:40.199Z,99.90
2018-07-25T02:36:08.411Z,99.90
2018-07-25T02:38:36.588Z,99.90
2018-07-25T02:41:04.827Z,99.90
2018-07-25T02:43:33.047Z,99.90
2018-07-25T02:46:01.249Z,99.90
2018-07-25T02:48:29.425Z,99.90
2018-07-25T02:50:57.596Z,99.90
2018-07-25T02:53:25.756Z,99.90
2018-07-25T02:55:53.905Z,99.90
2018-07-25T02:58:22.108Z,99.90
2018-07-25T03:00:50.301Z,99.90
2018-07-25T03:03:18.563Z,99.90
2018-07-25T03:05:46.840Z,99.90
2018-07-25T03:08:15.115Z,99.90
2018-07-25T03:10:49.588Z,99.90
2018-07-25T03:13:17.772Z,99.90
2018-07-25T03:15:45.953Z,99.90
2018-07-25T03:18:14.165Z,99.90
2018-07-25T03:20:42.347Z,99.90
2018-07-25T03:23:10.523Z,99.90
2018-07-25T03:25:38.709Z,99.90
2018-07-25T03:28:06.873Z,99.90
2018-07-25T03:30:35.097Z,99.90
2018-07-25T03:33:03.258Z,99.90
2018-07-25T03:35:31.402Z,99.90
2018-07-25T03:37:59.732Z,99.90
2018-07-25T03:40:27.952Z,99.90
2018-07-25T03:42:56.096Z,99.90
2018-07-25T03:45:24.284Z,99.90
2018-07-25T03:50:20.464Z,99.90
2018-07-25T03:52:48.644Z,99.90
2018-07-25T03:55:16.785Z,99.90
2018-07-25T03:57:45.013Z,99.90
2018-07-25T04:00:13.548Z,99.90
2018-07-25T04:02:41.955Z,99.90
2018-07-25T04:05:10.103Z,99.90
2018-07-25T04:07:38.344Z,99.90
2018-07-25T04:10:06.884Z,99.90
2018-07-25T04:12:35.080Z,99.90
2018-07-25T04:15:03.240Z,99.90
2018-07-25T04:17:41.983Z,99.90
2018-07-25T04:20:10.178Z,99.90
2018-07-25T04:22:38.349Z,99.90
2018-07-25T04:25:06.637Z,99.90
2018-07-25T04:27:34.988Z,99.90
2018-07-25T04:30:03.200Z,99.90
2018-07-25T04:32:31.464Z,99.90
2018-07-25T04:34:59.636Z,99.90
2018-07-25T04:37:27.943Z,99.90
2018-07-25T04:39:56.085Z,99.90
2018-07-25T04:42:24.348Z,99.90
2018-07-25T04:44:52.627Z,99.90
2018-07-25T04:47:20.851Z,99.90
2018-07-25T04:49:48.995Z,99.90
2018-07-25T04:52:17.565Z,99.90
2018-07-25T04:54:46.036Z,99.90
2018-07-25T04:57:14.325Z,99.90
2018-07-25T04:59:42.720Z,99.90
2018-07-25T05:02:11.236Z,99.90
2018-07-25T05:04:39.439Z,99.90
2018-07-25T05:07:07.632Z,99.90
2018-07-25T05:09:35.892Z,99.90
2018-07-25T05:12:04.383Z,99.90
2018-07-25T05:14:32.567Z,99.90
2018-07-25T05:17:01.044Z,99.90
2018-07-25T05:19:29.205Z,99.90
2018-07-25T05:21:57.381Z,99.90
2018-07-25T05:24:25.580Z,99.90
2018-07-25T05:26:53.728Z,99.90
2018-07-25T05:29:21.878Z,99.90
2018-07-25T05:31:50.003Z,99.90
2018-07-25T05:34:18.163Z,99.90
2018-07-25T05:36:46.304Z,99.90
2018-07-25T05:39:25.384Z,99.90
2018-07-25T05:41:54.209Z,99.90
2018-07-25T05:44:22.365Z,99.90
2018-07-25T05:46:50.492Z,99.90
2018-07-25T05:49:18.672Z,99.90
2018-07-25T05:51:46.848Z,99.90
2018-07-25T05:54:14.999Z,99.90
2018-07-25T05:56:43.174Z,99.90
2018-07-25T05:59:11.253Z,99.90
2018-07-25T06:01:39.424Z,99.90
2018-07-25T06:04:07.626Z,99.90
2018-07-25T06:06:35.752Z,99.90
2018-07-25T06:09:06.198Z,99.90
2018-07-25T06:11:34.343Z,99.90
2018-07-25T06:14:02.471Z,99.90
2018-07-25T06:16:30.616Z,99.90
2018-07-25T06:18:58.780Z,99.90
2018-07-25T06:21:26.931Z,99.90
2018-07-25T06:23:55.137Z,99.90
2018-07-25T06:26:23.332Z,99.90
2018-07-25T06:28:51.480Z,99.90
2018-07-25T06:31:19.746Z,99.90
2018-07-25T06:33:47.847Z,99.90
2018-07-25T06:36:16.031Z,99.90
2018-07-25T06:38:44.355Z,99.90
2018-07-25T06:41:12.566Z,99.90
2018-07-25T06:43:40.730Z,99.90
2018-07-25T06:46:08.866Z,99.90
2018-07-25T06:48:37.024Z,99.90
2018-07-25T06:51:05.205Z,99.90
2018-07-25T06:53:33.351Z,99.90
2018-07-25T06:56:01.571Z,99.90
2018-07-25T06:58:29.756Z,99.90
2018-07-25T07:00:57.996Z,99.90
2018-07-25T07:03:26.236Z,99.90
2018-07-25T07:05:54.511Z,99.90
2018-07-25T07:10:55.524Z,99.90
2018-07-25T07:13:27.507Z,99.90
2018-07-25T07:15:55.922Z,99.90
2018-07-25T07:18:25.634Z,99.90
2018-07-25T07:20:53.785Z,99.90
2018-07-25T07:23:22.023Z,99.90
2018-07-25T07:25:53.291Z,99.90
2018-07-25T07:28:21.533Z,99.90
2018-07-25T07:30:49.731Z,99.90
2018-07-25T07:33:17.987Z,99.90
2018-07-25T07:35:46.217Z,99.90
2018-07-25T07:38:14.396Z,99.90
2018-07-25T07:40:42.605Z,99.90
2018-07-25T07:43:10.734Z,99.90
2018-07-25T07:45:39.966Z,99.30
2018-07-25T07:48:08.140Z,99.30
2018-07-25T07:50:36.507Z,98.20
2018-07-25T07:53:04.870Z,97.80
2018-07-25T07:55:33.123Z,97.50
2018-07-25T07:58:01.356Z,97.10
2018-07-25T08:00:29.616Z,96.90
2018-07-25T08:02:57.827Z,96.40
2018-07-25T08:05:25.984Z,96.40
2018-07-25T08:07:54.143Z,95.70
2018-07-25T08:10:22.272Z,95.70
2018-07-25T08:12:55.137Z,95.70
2018-07-25T08:15:23.378Z,95.70
2018-07-25T08:17:51.746Z,95.00
2018-07-25T08:20:19.828Z,95.00
2018-07-25T08:22:48.066Z,94.90
2018-07-25T08:25:16.316Z,94.70
2018-07-25T08:27:44.476Z,94.30
2018-07-25T08:30:12.647Z,94.20
2018-07-25T08:32:40.824Z,93.80
2018-07-25T08:35:09.015Z,93.70
2018-07-25T08:37:37.278Z,93.30
2018-07-25T08:40:08.028Z,93.40
2018-07-25T08:42:36.303Z,93.30
2018-07-25T08:45:05.387Z,92.40
2018-07-25T08:47:33.567Z,92.00
2018-07-25T08:50:01.749Z,92.30
2018-07-25T08:52:30.023Z,92.40
2018-07-25T08:54:58.300Z,91.70
2018-07-25T08:57:26.480Z,92.00
2018-07-25T08:59:54.701Z,91.70
2018-07-25T09:02:22.828Z,91.50
2018-07-25T09:04:51.224Z,91.30
2018-07-25T09:07:19.388Z,91.50
2018-07-25T09:09:47.577Z,91.00
2018-07-25T09:12:15.749Z,90.80
2018-07-25T09:14:44.255Z,91.00
2018-07-25T09:17:12.396Z,90.80
2018-07-25T09:19:40.558Z,91.10
2018-07-25T09:22:08.828Z,91.20
2018-07-25T09:24:37.084Z,91.60
2018-07-25T09:27:05.279Z,91.40
2018-07-25T09:29:33.427Z,91.20
2018-07-25T09:32:01.660Z,91.10
2018-07-25T09:34:29.879Z,91.20
2018-07-25T09:36:58.337Z,91.00
2018-07-25T09:39:26.555Z,90.80
2018-07-25T09:41:54.728Z,90.90
2018-07-25T09:44:22.896Z,90.80
2018-07-25T09:46:51.089Z,90.90
2018-07-25T09:49:19.297Z,90.70
2018-07-25T09:51:48.112Z,90.50
2018-07-25T09:54:16.316Z,90.80
2018-07-25T09:56:44.483Z,90.60
2018-07-25T09:59:12.637Z,90.20
2018-07-25T10:01:40.844Z,90.10
2018-07-25T10:04:08.992Z,90.00
2018-07-25T10:06:37.221Z,90.20
2018-07-25T10:09:08.518Z,89.90
2018-07-25T10:11:36.800Z,89.00
2018-07-25T10:14:04.979Z,88.70
2018-07-25T10:16:33.148Z,88.70
2018-07-25T10:19:01.360Z,88.60
2018-07-25T10:21:29.502Z,87.80
2018-07-25T10:23:57.646Z,87.90
2018-07-25T10:26:25.845Z,87.80
2018-07-25T10:28:54.084Z,87.70
2018-07-25T10:31:22.267Z,87.10
2018-07-25T10:33:50.442Z,88.00
2018-07-25T10:36:18.641Z,86.80
2018-07-25T10:38:46.928Z,87.10
2018-07-25T10:41:15.088Z,86.90
2018-07-25T10:43:43.243Z,86.70
2018-07-25T10:46:11.415Z,86.40
2018-07-25T10:48:39.609Z,87.00
2018-07-25T10:51:07.755Z,86.70
2018-07-25T10:53:35.958Z,85.50
2018-07-25T10:56:04.106Z,83.60
2018-07-25T10:58:32.281Z,84.00
2018-07-25T11:01:00.455Z,83.60
2018-07-25T11:03:28.576Z,83.80
2018-07-25T11:05:56.766Z,83.40
2018-07-25T11:08:24.917Z,83.00
2018-07-25T11:10:53.045Z,83.10
2018-07-25T11:13:21.204Z,82.70
2018-07-25T11:15:49.343Z,82.80
2018-07-25T11:18:17.640Z,82.40
2018-07-25T11:20:45.800Z,82.80
2018-07-25T11:23:14.204Z,82.20
2018-07-25T11:25:42.136Z,81.70
2018-07-25T11:28:10.328Z,81.30
2018-07-25T11:30:38.486Z,81.90
2018-07-25T11:33:06.799Z,80.80
2018-07-25T11:35:34.949Z,79.50
2018-07-25T11:38:03.148Z,79.00
2018-07-25T11:40:31.250Z,78.80
2018-07-25T11:42:59.377Z,79.50
2018-07-25T11:45:27.555Z,79.20
2018-07-25T11:47:55.687Z,78.00
2018-07-25T11:50:23.893Z,78.80
2018-07-25T11:52:51.940Z,78.90
2018-07-25T11:55:24.577Z,77.90
2018-07-25T11:57:52.668Z,78.10
2018-07-25T12:00:20.966Z,77.60
2018-07-25T12:02:49.124Z,76.80
2018-07-25T12:05:17.280Z,76.70
2018-07-25T12:07:45.476Z,76.40
2018-07-25T12:10:13.615Z,76.20
2018-07-25T12:12:41.719Z,76.70
2018-07-25T12:15:10.142Z,76.30
2018-07-25T12:17:38.646Z,75.80
2018-07-25T12:20:07.148Z,75.80
2018-07-25T12:22:35.292Z,75.50
2018-07-25T12:25:03.437Z,75.30
2018-07-25T12:27:31.676Z,75.70
2018-07-25T12:29:59.836Z,75.70
2018-07-25T12:32:27.984Z,76.10
2018-07-25T12:34:56.191Z,75.80
2018-07-25T12:37:24.339Z,76.40
2018-07-25T12:39:52.454Z,75.80
2018-07-25T12:42:20.596Z,75.50
2018-07-25T12:44:48.776Z,74.50
2018-07-25T12:47:16.940Z,73.50
2018-07-25T12:49:45.092Z,73.40
2018-07-25T12:52:13.226Z,73.80
2018-07-25T12:54:41.372Z,73.80
2018-07-25T12:57:09.634Z,73.40
2018-07-25T12:59:37.840Z,73.70
2018-07-25T13:02:06.939Z,73.00
2018-07-25T13:04:35.020Z,73.30
2018-07-25T13:07:03.167Z,73.30
2018-07-25T13:09:31.333Z,73.70
2018-07-25T13:11:59.504Z,74.30
2018-07-25T13:14:27.694Z,73.40
2018-07-25T13:16:55.848Z,72.10
2018-07-25T13:19:24.009Z,73.00
2018-07-25T13:21:52.187Z,71.60
2018-07-25T13:24:20.316Z,71.70
2018-07-25T13:26:48.500Z,72.10
2018-07-25T13:29:16.692Z,72.10
2018-07-25T13:31:44.861Z,72.20
2018-07-25T13:34:12.997Z,71.40
2018-07-25T13:36:41.174Z,71.20
2018-07-25T13:39:09.504Z,70.00
2018-07-25T13:41:37.807Z,70.00
2018-07-25T13:44:06.168Z,71.00
2018-07-25T13:46:34.346Z,70.80
2018-07-25T13:49:02.491Z,70.60
2018-07-25T13:51:30.685Z,70.40
2018-07-25T13:53:58.934Z,70.00
2018-07-25T13:56:27.093Z,70.20
2018-07-25T13:58:55.357Z,70.00
2018-07-25T14:01:23.536Z,69.20
2018-07-25T14:03:51.676Z,69.20
2018-07-25T14:06:19.844Z,69.00
2018-07-25T14:08:48.099Z,69.40
2018-07-25T14:11:16.239Z,68.70
2018-07-25T14:13:44.366Z,69.10
2018-07-25T14:16:12.503Z,69.30
2018-07-25T14:18:40.664Z,69.30
2018-07-25T14:21:08.785Z,70.40
2018-07-25T14:23:37.087Z,69.50
2018-07-25T14:26:05.190Z,69.50
2018-07-25T14:28:33.419Z,69.80
2018-07-25T14:31:01.689Z,69.60
2018-07-25T14:33:29.845Z,69.70
2018-07-25T14:35:57.991Z,70.30
2018-07-25T14:38:26.119Z,71.20
2018-07-25T14:40:54.373Z,75.20
2018-07-25T14:43:22.563Z,79.50
2018-07-25T14:45:50.665Z,83.00
2018-07-25T14:48:18.830Z,85.70
2018-07-25T14:50:46.962Z,87.30
2018-07-25T14:53:15.439Z,89.00
2018-07-25T14:55:43.623Z,91.10
2018-07-25T14:58:11.827Z,91.30
2018-07-25T15:00:40.032Z,91.40
2018-07-25T15:03:08.421Z,91.80
2018-07-25T15:05:36.551Z,91.80
2018-07-25T15:08:05.005Z,92.00
2018-07-25T15:10:33.165Z,92.30
2018-07-25T15:13:01.374Z,92.50
2018-07-25T15:15:29.484Z,94.40
2018-07-25T15:17:57.826Z,94.30
2018-07-25T15:20:26.354Z,94.80
2018-07-25T15:22:54.473Z,95.10
2018-07-25T15:25:22.643Z,99.90
2018-07-25T15:27:50.803Z,99.90
2018-07-25T15:30:18.970Z,99.90
2018-07-25T15:32:47.161Z,99.90
2018-07-25T15:35:15.506Z,99.90
2018-07-25T15:37:43.668Z,99.90
2018-07-25T15:40:11.875Z,99.90
2018-07-25T15:42:40.071Z,99.90
2018-07-25T15:45:08.235Z,99.90
2018-07-25T15:47:36.471Z,99.90
2018-07-25T15:50:05.412Z,99.90
2018-07-25T15:52:33.660Z,99.90
2018-07-25T15:55:01.829Z,99.90
2018-07-25T15:57:30.051Z,99.90
2018-07-25T15:59:58.300Z,99.90
2018-07-25T16:02:26.468Z,99.90
2018-07-25T16:04:54.649Z,99.90
2018-07-25T16:07:22.788Z,99.90
2018-07-25T16:09:51.028Z,99.90
2018-07-25T16:12:19.187Z,99.90
2018-07-25T16:14:47.416Z,99.90
2018-07-25T16:17:15.575Z,99.90
2018-07-25T16:19:43.760Z,99.90
2018-07-25T16:22:12.085Z,99.90
2018-07-25T16:24:40.461Z,99.90
2018-07-25T16:27:08.765Z,99.90
2018-07-25T16:29:37.092Z,99.90
2018-07-25T16:32:05.527Z,99.90
2018-07-25T16:34:33.664Z,99.90
2018-07-25T16:37:01.898Z,99.90
2018-07-25T16:39:30.080Z,99.90
2018-07-25T16:41:58.210Z,99.90
2018-07-25T16:44:26.364Z,99.90
2018-07-25T16:46:54.582Z,99.90
2018-07-25T16:49:22.735Z,99.90
2018-07-25T16:51:50.904Z,99.90
2018-07-25T16:54:19.117Z,99.90
2018-07-25T16:56:47.339Z,99.90
2018-07-25T16:59:15.457Z,99.90
2018-07-25T17:01:43.584Z,99.90
2018-07-25T17:04:12.783Z,99.90
2018-07-25T17:06:40.923Z,99.90
2018-07-25T17:09:10.387Z,99.90
2018-07-25T17:11:38.509Z,99.90
2018-07-25T17:14:06.776Z,99.90
2018-07-25T17:16:34.983Z,99.90
2018-07-25T17:19:03.148Z,99.90
2018-07-25T17:21:31.299Z,99.90
2018-07-25T17:23:59.451Z,99.90
2018-07-25T17:26:27.616Z,99.90
2018-07-25T17:28:55.796Z,99.90
2018-07-25T17:31:23.940Z,99.90
2018-07-25T17:33:52.180Z,99.90
2018-07-25T17:36:20.340Z,99.90
2018-07-25T17:38:48.472Z,99.90
2018-07-25T17:41:16.703Z,99.90
2018-07-25T17:43:44.826Z,99.90
2018-07-25T17:46:13.003Z,99.90
2018-07-25T17:48:41.164Z,99.90
2018-07-25T17:51:09.357Z,99.90
2018-07-25T17:53:37.479Z,99.90
2018-07-25T17:56:05.650Z,99.90
2018-07-25T17:58:33.803Z,99.90
2018-07-25T18:01:01.947Z,99.90
2018-07-25T18:03:30.147Z,99.90
2018-07-25T18:05:58.215Z,99.90
2018-07-25T18:08:26.382Z,99.90
2018-07-25T18:10:54.502Z,99.90
2018-07-25T18:13:28.091Z,99.90
2018-07-25T18:15:56.204Z,99.90
2018-07-25T18:18:24.438Z,99.90
2018-07-25T18:20:52.585Z,99.90
2018-07-25T18:23:20.727Z,99.90
2018-07-25T18:25:48.848Z,99.90
2018-07-25T18:28:17.694Z,99.90
2018-07-25T18:30:45.824Z,99.90
2018-07-25T18:33:14.049Z,99.90
2018-07-25T18:35:42.263Z,99.90
2018-07-25T18:38:10.364Z,99.90
2018-07-25T18:40:38.529Z,99.90
2018-07-25T18:43:06.704Z,99.90
2018-07-25T18:45:34.857Z,99.90
2018-07-25T18:48:03.081Z,99.90
2018-07-25T18:50:31.236Z,99.90
2018-07-25T18:52:59.423Z,99.90
2018-07-25T18:55:27.582Z,99.90
2018-07-25T18:57:55.749Z,99.90
2018-07-25T19:00:23.901Z,99.90
2018-07-25T19:02:52.051Z,99.90
2018-07-25T19:05:24.469Z,99.90
2018-07-25T19:07:52.599Z,99.90
2018-07-25T19:10:20.762Z,99.90
2018-07-25T19:12:50.016Z,99.90
2018-07-25T19:15:23.625Z,99.90
2018-07-25T19:17:52.356Z,99.90
2018-07-25T19:20:20.540Z,99.90
2018-07-25T19:22:48.660Z,99.90
2018-07-25T19:25:16.812Z,99.90
2018-07-25T19:27:45.044Z,99.90
2018-07-25T19:30:13.184Z,99.90
2018-07-25T19:32:41.344Z,99.90
2018-07-25T19:35:09.643Z,99.90
2018-07-25T19:37:37.668Z,99.90
2018-07-25T19:40:06.088Z,99.90
2018-07-25T19:42:34.264Z,99.90
2018-07-25T19:45:02.449Z,99.90
2018-07-25T19:47:30.644Z,99.90
2018-07-25T19:49:58.788Z,99.90
2018-07-25T19:52:26.915Z,99.90
2018-07-25T19:54:55.691Z,99.90
2018-07-25T19:57:24.188Z,99.90
2018-07-25T19:59:52.316Z,99.90
2018-07-25T20:02:20.479Z,99.90
2018-07-25T20:04:48.623Z,99.90
2018-07-25T20:07:16.920Z,99.90
2018-07-25T20:09:45.080Z,99.90
2018-07-25T20:12:13.201Z,99.90
2018-07-25T20:14:46.688Z,99.90
2018-07-25T20:17:15.502Z,99.90
2018-07-25T20:19:43.788Z,99.90
2018-07-25T20:22:11.973Z,99.90
2018-07-25T20:24:40.285Z,99.90
2018-07-25T20:27:08.488Z,99.90
2018-07-25T20:29:36.754Z,99.90
2018-07-25T20:32:04.956Z,99.90
2018-07-25T20:34:33.216Z,99.90
2018-07-25T20:37:01.369Z,99.90
2018-07-25T20:39:29.544Z,99.90
2018-07-25T20:41:57.732Z,99.90
2018-07-25T20:44:25.908Z,99.90
2018-07-25T20:46:54.082Z,99.90
2018-07-25T20:49:22.268Z,99.90
2018-07-25T20:51:50.473Z,99.90
2018-07-25T20:54:18.781Z,99.90
2018-07-25T20:56:46.986Z,99.90
2018-07-25T20:59:15.170Z,99.90
2018-07-25T21:01:43.311Z,99.90
2018-07-25T21:04:11.487Z,99.90
2018-07-25T21:06:41.821Z,99.90
2018-07-25T21:09:10.049Z,99.90
2018-07-25T21:11:38.177Z,99.90
2018-07-25T21:14:06.400Z,99.90
2018-07-25T21:16:34.568Z,99.90
2018-07-25T21:19:02.708Z,99.90
2018-07-25T21:23:58.955Z,99.90
2018-07-25T21:26:27.154Z,99.90
2018-07-25T21:28:56.320Z,99.90
2018-07-25T21:34:14.799Z,99.90
2018-07-25T21:36:42.972Z,99.90
2018-07-25T21:39:12.660Z,99.90
2018-07-25T21:41:41.105Z,99.90
2018-07-25T21:44:09.276Z,99.90
2018-07-25T21:46:37.475Z,99.90
2018-07-25T21:49:05.947Z,99.90
2018-07-25T21:51:34.106Z,99.90
2018-07-25T21:54:02.319Z,99.90
2018-07-25T21:56:30.504Z,99.90
2018-07-25T21:58:58.764Z,99.90
2018-07-25T22:01:26.917Z,99.90
2018-07-25T22:03:55.081Z,99.90
2018-07-25T22:06:23.242Z,99.90
2018-07-25T22:08:51.440Z,99.90
2018-07-25T22:11:19.538Z,99.90
2018-07-25T22:13:54.728Z,99.90
2018-07-25T22:16:23.665Z,99.90
2018-07-25T22:18:51.884Z,99.90
2018-07-25T22:21:20.104Z,99.90
2018-07-25T22:23:48.352Z,99.90
2018-07-25T22:26:16.572Z,99.90
2018-07-25T22:28:44.728Z,99.90
2018-07-25T22:31:13.072Z,99.90
2018-07-25T22:33:41.263Z,99.90
2018-07-25T22:36:10.045Z,99.90
2018-07-25T22:38:38.180Z,99.90
2018-07-25T22:41:06.479Z,99.90
2018-07-25T22:43:34.800Z,99.90
2018-07-25T22:46:11.608Z,99.90
2018-07-25T22:48:39.851Z,99.90
2018-07-25T22:51:08.679Z,99.90
2018-07-25T22:53:36.843Z,99.90
2018-07-25T22:56:05.163Z,99.90
2018-07-25T22:58:33.345Z,99.90
2018-07-25T23:01:01.507Z,99.90
2018-07-25T23:03:29.666Z,99.90
2018-07-25T23:06:15.487Z,99.90
2018-07-25T23:08:43.646Z,99.90
2018-07-25T23:11:12.565Z,99.90
2018-07-25T23:13:45.012Z,99.90
2018-07-25T23:16:13.283Z,99.90
2018-07-25T23:18:41.461Z,99.90
2018-07-25T23:21:09.752Z,99.90
2018-07-25T23:23:37.895Z,99.90
2018-07-25T23:26:06.147Z,99.90
2018-07-25T23:28:34.333Z,99.90
2018-07-25T23:31:02.499Z,99.90
2018-07-25T23:33:30.663Z,99.90
2018-07-25T23:35:58.819Z,99.90
2018-07-25T23:38:26.999Z,99.90
2018-07-25T23:40:55.144Z,99.90
2018-07-25T23:43:23.308Z,99.90
2018-07-25T23:45:51.478Z,99.90
2018-07-25T23:48:19.632Z,99.90
2018-07-25T23:50:47.778Z,99.90
2018-07-25T23:53:15.958Z,99.90
2018-07-25T23:55:44.185Z,99.90
2018-07-25T23:58:12.341Z,99.90
